• Join FlightAware (Why Join?)
  • Login
  • US Flag 
10:29PM EST


 

Airport Tracker/Info


-or-


 

Live Flight TrackerFlight Track Log ✈ MSR882 ✈ 09-May-2013 ✈ DGAA / ACC - HECA / CAI

Flight Track Log - Related Links

Times and Time Zones

All times are in EDT time to prevent confusion due to time zone crossing. See the MSR882 flight status page for this flight to view local times or setup timezone preferences in your user account.

Time Position Orientation Groundspeed Altitude Reporting Facility
EDT Latitude Longitude Course Direction KTS MPH feet Rate Location/Type
09:48AM 6.6065 0.9022 47° Northeast  Level Estimated
09:49AM 6.7315 1.0361 47° Northeast  Level Estimated
09:50AM 6.8565 1.1701 47° Northeast  Level Estimated
09:51AM 6.9815 1.3041 47° Northeast  Level Estimated
09:52AM 7.1064 1.4383 47° Northeast  Level Estimated
09:53AM 7.2312 1.5725 47° Northeast  Level Estimated
09:54AM 7.3560 1.7067 47° Northeast  Level Estimated
09:55AM 7.4808 1.8411 47° Northeast  Level Estimated
09:56AM 7.6056 1.9755 47° Northeast  Level Estimated
09:57AM 7.7303 2.1100 47° Northeast  Level Estimated
09:58AM 7.8549 2.2446 47° Northeast  Level Estimated
09:59AM 7.9795 2.3793 47° Northeast  Level Estimated
10:00AM 8.1041 2.5140 47° Northeast  Level Estimated
10:01AM 8.2286 2.6488 47° Northeast  Level Estimated
10:02AM 8.3531 2.7837 47° Northeast  Level Estimated
10:03AM 8.4776 2.9187 47° Northeast  Level Estimated
10:04AM 8.6020 3.0538 47° Northeast  Level Estimated
10:05AM 8.7263 3.1890 47° Northeast  Level Estimated
10:06AM 8.8506 3.3243 47° Northeast  Level Estimated
10:07AM 8.9749 3.4596 47° Northeast  Level Estimated
10:08AM 9.0991 3.5951 47° Northeast  Level Estimated
10:09AM 9.2232 3.7306 47° Northeast  Level Estimated
10:10AM 9.3473 3.8663 47° Northeast  Level Estimated
10:11AM 9.4714 4.0020 47° Northeast  Level Estimated
10:12AM 9.5954 4.1378 47° Northeast  Level Estimated
10:13AM 9.7193 4.2738 47° Northeast  Level Estimated
10:14AM 9.8432 4.4098 47° Northeast  Level Estimated
10:15AM 9.9670 4.5459 47° Northeast  Level Estimated
10:16AM 10.0908 4.6822 47° Northeast  Level Estimated
10:17AM 10.2145 4.8185 47° Northeast  Level Estimated
10:18AM 10.3382 4.9550 47° Northeast  Level Estimated
10:19AM 10.4618 5.0915 47° Northeast  Level Estimated
10:20AM 10.5854 5.2282 47° Northeast  Level Estimated
10:21AM 10.7088 5.3650 47° Northeast  Level Estimated
10:22AM 10.8323 5.5019 47° Northeast  Level Estimated
10:23AM 10.9556 5.6389 47° Northeast  Level Estimated
10:24AM 11.0789 5.7760 47° Northeast  Level Estimated
10:25AM 11.2022 5.9132 48° Northeast  Level Estimated
10:26AM 11.3254 6.0506 48° Northeast  Level Estimated
10:27AM 11.4485 6.1880 48° Northeast  Level Estimated
10:28AM 11.5716 6.3256 48° Northeast  Level Estimated
10:29AM 11.6946 6.4633 48° Northeast  Level Estimated
10:30AM 11.8175 6.6012 48° Northeast  Level Estimated
10:31AM 11.9403 6.7391 48° Northeast  Level Estimated
10:32AM 12.0631 6.8772 48° Northeast  Level Estimated
10:33AM 12.1859 7.0154 48° Northeast  Level Estimated
10:34AM 12.3085 7.1537 48° Northeast  Level Estimated
10:35AM 12.4311 7.2922 48° Northeast  Level Estimated
10:36AM 12.5536 7.4308 48° Northeast  Level Estimated
10:37AM 12.6761 7.5695 48° Northeast  Level Estimated
10:38AM 12.7985 7.7084 48° Northeast  Level Estimated
10:39AM 12.9208 7.8474 48° Northeast  Level Estimated
10:40AM 13.0430 7.9865 48° Northeast  Level Estimated
10:41AM 13.1651 8.1257 48° Northeast  Level Estimated
10:42AM 13.2872 8.2652 48° Northeast  Level Estimated
10:43AM 13.4092 8.4047 48° Northeast  Level Estimated
10:44AM 13.5311 8.5444 48° Northeast  Level Estimated
10:45AM 13.6530 8.6842 48° Northeast  Level Estimated
10:46AM 13.7748 8.8242 48° Northeast  Level Estimated
10:47AM 13.8965 8.9643 48° Northeast  Level Estimated
10:48AM 14.0181 9.1046 48° Northeast  Level Estimated
10:49AM 14.1396 9.2450 48° Northeast  Level Estimated
10:50AM 14.2611 9.3856 48° Northeast  Level Estimated
10:51AM 14.3824 9.5263 48° Northeast  Level Estimated
10:52AM 14.5037 9.6672 48° Northeast  Level Estimated
10:53AM 14.6249 9.8082 48° Northeast  Level Estimated
10:54AM 14.7460 9.9494 48° Northeast  Level Estimated
10:55AM 14.8670 10.0907 48° Northeast  Level Estimated
10:56AM 14.9880 10.2322 48° Northeast  Level Estimated
10:57AM 15.1088 10.3739 49° Northeast  Level Estimated
10:58AM 15.2296 10.5157 49° Northeast  Level Estimated
10:59AM 15.3503 10.6577 49° Northeast  Level Estimated
11:00AM 15.4709 10.7998 49° Northeast  Level Estimated
11:01AM 15.5914 10.9422 49° Northeast  Level Estimated
11:02AM 15.7118 11.0846 49° Northeast  Level Estimated
11:03AM 15.8321 11.2273 49° Northeast  Level Estimated
11:04AM 15.9523 11.3701 49° Northeast  Level Estimated
11:05AM 16.0724 11.5131 49° Northeast  Level Estimated
11:06AM 16.1924 11.6562 49° Northeast  Level Estimated
11:07AM 16.3124 11.7996 49° Northeast  Level Estimated
11:08AM 16.4322 11.9431 49° Northeast  Level Estimated
11:09AM 16.5520 12.0868 49° Northeast  Level Estimated
11:10AM 16.6716 12.2306 49° Northeast  Level Estimated
11:11AM 16.7911 12.3747 49° Northeast  Level Estimated
11:12AM 16.9106 12.5189 49° Northeast  Level Estimated
11:13AM 17.0299 12.6633 49° Northeast  Level Estimated
11:14AM 17.1492 12.8079 49° Northeast  Level Estimated
11:15AM 17.2683 12.9527 49° Northeast  Level Estimated
11:16AM 17.3873 13.0977 49° Northeast  Level Estimated
11:17AM 17.5063 13.2428 49° Northeast  Level Estimated
11:18AM 17.6251 13.3882 49° Northeast  Level Estimated
11:19AM 17.7438 13.5337 49° Northeast  Level Estimated
11:20AM 17.8624 13.6795 49° Northeast  Level Estimated
11:21AM 17.9809 13.8254 49° Northeast  Level Estimated
11:22AM 18.0993 13.9715 50° Northeast  Level Estimated
11:23AM 18.2176 14.1178 50° Northeast  Level Estimated
11:24AM 18.3357 14.2643 50° Northeast  Level Estimated
11:25AM 18.4538 14.4111 50° Northeast  Level Estimated
11:26AM 18.5717 14.5580 50° Northeast  Level Estimated
11:27AM 18.6896 14.7051 50° Northeast  Level Estimated
11:28AM 18.8073 14.8524 50° Northeast  Level Estimated
11:29AM 18.9249 15.0000 50° Northeast  Level Estimated
11:30AM 19.0424 15.1477 50° Northeast  Level Estimated
11:31AM 19.1597 15.2957 50° Northeast  Level Estimated
11:32AM 19.2770 15.4438 50° Northeast  Level Estimated
11:33AM 19.3941 15.5922 50° Northeast  Level Estimated
11:34AM 19.5111 15.7408 50° Northeast  Level Estimated
11:35AM 19.6280 15.8896 50° Northeast  Level Estimated
11:36AM 19.7447 16.0386 50° Northeast  Level Estimated
11:37AM 19.8614 16.1878 50° Northeast  Level Estimated
11:38AM 19.9779 16.3373 50° Northeast  Level Estimated
11:39AM 20.0943 16.4870 50° Northeast  Level Estimated
11:40AM 20.2105 16.6369 50° Northeast  Level Estimated
11:41AM 20.3267 16.7870 50° Northeast  Level Estimated
11:42AM 20.4427 16.9373 51° Northeast  Level Estimated
11:43AM 20.5585 17.0879 51° Northeast  Level Estimated
11:44AM 20.6743 17.2387 51° Northeast  Level Estimated
11:45AM 20.7899 17.3898 51° Northeast  Level Estimated
11:46AM 20.9054 17.5410 51° Northeast  Level Estimated
11:47AM 21.0207 17.6925 51° Northeast  Level Estimated
11:48AM 21.1359 17.8443 51° Northeast  Level Estimated
11:49AM 21.2510 17.9962 51° Northeast  Level Estimated
11:50AM 21.3660 18.1484 51° Northeast  Level Estimated
11:51AM 21.4808 18.3009 51° Northeast  Level Estimated
11:52AM 21.5954 18.4536 51° Northeast  Level Estimated
11:53AM 21.7100 18.6065 51° Northeast  Level Estimated
11:54AM 21.8244 18.7597 51° Northeast  Level Estimated
11:55AM 21.9386 18.9131 51° Northeast  Level Estimated
11:56AM 22.0527 19.0668 51° Northeast  Level Estimated
11:57AM 22.1667 19.2207 51° Northeast  Level Estimated
11:58AM 22.2805 19.3748 51° Northeast  Level Estimated
11:59AM 22.3941 19.5292 51° Northeast  Level Estimated
12:00PM 22.5077 19.6839 52° Northeast  Level Estimated
12:01PM 22.6210 19.8388 52° Northeast  Level Estimated
12:02PM 22.7343 19.9940 52° Northeast  Level Estimated
12:03PM 22.8473 20.1494 52° Northeast  Level Estimated
12:04PM 22.9603 20.3051 52° Northeast  Level Estimated
12:05PM 23.0730 20.4611 52° Northeast  Level Estimated
12:06PM 23.1857 20.6173 52° Northeast  Level Estimated
12:07PM 23.2981 20.7737 52° Northeast  Level Estimated
12:08PM 23.4104 20.9305 52° Northeast  Level Estimated
12:09PM 23.5226 21.0875 52° Northeast  Level Estimated
12:10PM 23.6346 21.2447 52° Northeast  Level Estimated
12:11PM 23.7464 21.4023 52° Northeast  Level Estimated
12:12PM 23.8581 21.5601 52° Northeast  Level Estimated
12:13PM 23.9696 21.7182 52° Northeast  Level Estimated
12:14PM 24.0809 21.8765 52° Northeast  Level Estimated
12:15PM 24.1921 22.0352 52° Northeast  Level Estimated
12:16PM 24.3032 22.1941 53° Northeast  Level Estimated
12:17PM 24.4140 22.3533 53° Northeast  Level Estimated
12:18PM 24.5247 22.5127 53° Northeast  Level Estimated
12:19PM 24.6352 22.6725 53° Northeast  Level Estimated
12:20PM 24.7456 22.8325 53° Northeast  Level Estimated
12:21PM 24.8558 22.9928 53° Northeast  Level Estimated
12:22PM 24.9658 23.1534 53° Northeast  Level Estimated
12:23PM 25.0756 23.3143 53° Northeast  Level Estimated
12:24PM 25.1853 23.4755 53° Northeast  Level Estimated
12:25PM 25.2948 23.6370 53° Northeast  Level Estimated
12:26PM 25.4041 23.7987 53° Northeast  Level Estimated
12:27PM 25.5132 23.9608 53° Northeast  Level Estimated
12:28PM 25.6222 24.1231 53° Northeast  Level Estimated
12:29PM 25.7310 24.2858 53° Northeast  Level Estimated
12:30PM 25.8396 24.4487 53° Northeast  Level Estimated
12:31PM 25.9480 24.6120 54° Northeast  Level Estimated
12:32PM 26.0562 24.7755 54° Northeast  Level Estimated
12:33PM 26.1643 24.9393 54° Northeast  Level Estimated
12:34PM 26.2721 25.1035 54° Northeast  Level Estimated
12:35PM 26.3798 25.2679 54° Northeast  Level Estimated
12:36PM 26.4873 25.4327 54° Northeast  Level Estimated
12:37PM 26.5946 25.5978 54° Northeast  Level Estimated
12:38PM 26.7017 25.7631 54° Northeast  Level Estimated
12:39PM 26.8086 25.9288 54° Northeast  Level Estimated
12:40PM 26.9154 26.0948 54° Northeast  Level Estimated
12:41PM 27.0219 26.2611 54° Northeast  Level Estimated
12:42PM 27.1282 26.4278 54° Northeast  Level Estimated
12:43PM 27.2344 26.5947 54° Northeast  Level Estimated
12:44PM 27.3403 26.7620 54° Northeast  Level Estimated
12:45PM 27.4460 26.9296 55° Northeast  Level Estimated
12:46PM 27.5516 27.0975 55° Northeast  Level Estimated
12:47PM 27.6569 27.2657 55° Northeast  Level Estimated
12:48PM 27.7621 27.4342 55° Northeast  Level Estimated
12:49PM 27.8670 27.6031 55° Northeast  Level Estimated
12:50PM 27.9717 27.7723 55° Northeast  Level Estimated
12:51PM 28.0762 27.9418 55° Northeast  Level Estimated
12:52PM 28.1805 28.1117 55° Northeast  Level Estimated
12:53PM 28.2846 28.2819 55° Northeast  Level Estimated
12:54PM 28.3885 28.4524 55° Northeast  Level Estimated
12:55PM 28.4921 28.6233 55° Northeast  Level Estimated
12:56PM 28.5956 28.7945 55° Northeast  Level Estimated
12:57PM 28.6989 28.9660 56° Northeast  Level Estimated
12:58PM 28.8019 29.1379 56° Northeast  Level Estimated
12:59PM 28.9047 29.3101 56° Northeast  Level Estimated
01:00PM 29.0073 29.4826 56° Northeast  Level Estimated
01:01PM 29.1096 29.6555 56° Northeast  Level Estimated
01:02PM 29.2118 29.8288 56° Northeast  Level Estimated
01:03PM 29.3137 30.0024 56° Northeast  Level Estimated
01:04PM 29.4154 30.1763 56° Northeast  Level Estimated
01:05PM 29.5169 30.3506 56° Northeast  Level Estimated
01:06PM 29.6181 30.5252 56° Northeast  Level Estimated
01:07PM 29.7191 30.7002 56° Northeast  Level Estimated
01:08PM 29.8199 30.8755 56° Northeast  Level Estimated
01:09PM 29.9205 31.0512 57° Northeast  Level Estimated
01:10PM 30.0208 31.2272 57° Northeast  Level Estimated
01:11PM 30.1209 31.4036 57° Northeast  Level Estimated
01:12PM 30.1219 31.4056 57° Northeast  Level Estimated
01:13PM 30.1219 31.4056 319° Northwest  Level Estimated
01:14PM 30.1219 31.4056 319° Northwest  Level Estimated
01:15PM 30.1219 31.4056 319° Northwest  Level Estimated
01:16PM 30.1219 31.4056 319° Northwest  Level Estimated
01:17PM 30.1219 31.4056 319° Northwest  Level Estimated
01:18PM 30.1219 31.4056 319° Northwest  Level Estimated
01:19PM 30.1219 31.4056 319° Northwest  Level Estimated
01:20PM 30.1219 31.4056 319° Northwest  Level Estimated
01:21PM 30.1219 31.4056 319° Northwest  Level Estimated
01:22PM 30.1219 31.4056 319° Northwest  Level Estimated
01:23PM 30.1219 31.4056 319° Northwest  Level Estimated
01:24PM 30.1219 31.4056 319° Northwest  Level Estimated
01:25PM 30.1219 31.4056 319° Northwest  Level Estimated
01:26PM 30.1219 31.4056 319° Northwest  Level Estimated
01:27PM 30.1219 31.4056 319° Northwest  Level Estimated